Cincinnati, Ohio
Traffic Map
Current Weather Conditions
Cincinnati, Ohio
Overcast
Overcast

Feels Like: 3°
Wind Chill: Ceiling: 3400
Heat Index: Visibility: 10mi
Dew Point: Wind: 21mph
Humidity: 63% Direction: 240° (WSW)
Pressure: 29.73in Gusts: 31mph
Raw Report DataKLUK 242053Z 24018G27KT 10SM OVC034 08/01 A2973 RMK AO2 PK WND 25030/2019 SLP068 T00780011 51046
Traffic Incident Summary
Active as of:
Severity:
Category:
InformationThere was an issue retrieving the traffic information for this location. Please try a different location or try again shortly.
Advertisements
Track Severe Weather on mobile